Pagina principale
METAR-TAF:

METAR-TAF

Aeroporti :

Mafikeng, Sudafrica

latitudine: 25-47S, longitudine: 025-32E, altezza: 1281 m

Osservazione

Il bollettino è stato emesso 27 minuti fa, alle 19:00 UTC
Vento 4 kt da est
Temperature 9°C
Umidità 46%
Pressione 1032 hPa

METAR: FAMM 191900Z AUTO 08004KT //// // ////// 09/M02 Q1032

Ora: 21:27 (19:27 UTC)

Previsione

Il bollettino è stato emesso 10 ore e 27 minuti fa, alle 09:00 UTC
Previsione valida dal 19 alle 10 UTC al 19 alle 18 UTC
Vento 10 kt da nord/nord-est
Visibilità 10 km o più
nessuna nube inferiore a 1500 m e nessun cumulonembo

TAF: FAMM 190900Z 1910/1918 02010KT CAVOK TX20/1912Z TN04/1918Z

Osservazioni e previsioni meteorologiche di più di 4000 aeroporti (messaggi METAR e TAF).

Le stazioni disponibili sono rappresentate dai dischi gialli e rossi sulla carta.

Puntare il mouse per vedere il nome della stazione.

Clicca sopra per visualizzare le osservazioni e previsioni meteorologiche.

Per cambiare la mappa : fare clic sui pulsanti verdi con una croce nera per ingrandire, il pulsante verde con un trattino per diminuire, o sulla freccia verde per le mappe adiacenti.


METAR-TAF: